Time;durP1;ratioP1;P1;durP2;ratioP2;P2;SDS_P1;SDS_P2;PMS_P1;PMS_P2;Temp;Humidity;BMP_temperature;BMP_pressure;BME280_temperature;BME280_humidity;BME280_pressure;Samples;Min_cycle;Max_cycle;Signal;HPM_P1;HPM_P2
2022/09/21 00:00:44;;;;;;;;;12.75;11.25;;;;;15.69;50.45;101909.53;5090483;27;64739;-43
2022/09/21 00:03:10;;;;;;;;;11.50;10.75;;;;;15.67;50.19;101911.34;5086811;27;45312;-47
2022/09/21 00:05:35;;;;;;;;;11.50;10.25;;;;;15.67;50.42;101919.25;5095155;27;45448;-42
2022/09/21 00:08:03;;;;;;;;;10.75;10.75;;;;;15.67;50.79;101913.09;5104493;27;45569;-42
2022/09/21 00:10:28;;;;;;;;;12.50;9.50;;;;;15.64;50.84;101907.94;5096794;27;45366;-41
2022/09/21 00:12:55;;;;;;;;;12.50;9.00;;;;;15.62;50.15;101913.25;5091518;27;45503;-43
2022/09/21 00:15:21;;;;;;;;;9.50;7.25;;;;;15.59;50.33;101915.97;5088760;27;45413;-42
2022/09/21 00:17:46;;;;;;;;;12.75;8.50;;;;;15.57;50.83;101913.38;5090698;27;46150;-43
2022/09/21 00:20:13;;;;;;;;;13.25;11.00;;;;;15.55;50.73;101909.06;5090926;27;61079;-43
2022/09/21 00:22:38;;;;;;;;;9.50;9.50;;;;;15.52;50.42;101915.28;5096261;27;45340;-42
2022/09/21 00:25:04;;;;;;;;;11.00;10.00;;;;;15.52;50.55;101914.41;5095498;27;55231;-43
2022/09/21 00:27:30;;;;;;;;;13.00;10.00;;;;;15.52;50.71;101912.63;5093402;27;48081;-43
2022/09/21 00:30:03;;;;;;;;;9.25;9.00;;;;;15.51;50.43;101913.56;5093472;27;45540;-42
2022/09/21 00:32:32;;;;;;;;;8.75;8.00;;;;;15.50;50.85;101911.81;5094029;27;45355;-44
2022/09/21 00:34:59;;;;;;;;;9.75;7.00;;;;;15.49;50.99;101914.50;5087637;27;45477;-43
2022/09/21 00:37:25;;;;;;;;;7.25;7.00;;;;;15.47;50.30;101914.53;5096673;27;45484;-43
2022/09/21 00:39:50;;;;;;;;;9.75;6.75;;;;;15.46;50.89;101912.81;5095859;27;45489;-43
2022/09/21 00:42:17;;;;;;;;;7.75;6.50;;;;;15.44;50.72;101913.75;5091606;27;60483;-42
2022/09/21 00:44:43;;;;;;;;;7.50;6.00;;;;;15.43;50.54;101917.31;5094565;27;45753;-42
2022/09/21 00:47:11;;;;;;;;;6.50;6.00;;;;;15.42;50.50;101920.84;5090024;27;52712;-41
2022/09/21 00:49:37;;;;;;;;;6.50;6.00;;;;;15.40;50.88;101915.63;5094823;27;45308;-44
2022/09/21 00:52:04;;;;;;;;;7.50;6.50;;;;;15.39;50.36;101916.56;5078412;27;45463;-42
2022/09/21 00:54:34;;;;;;;;;8.00;6.50;;;;;15.39;50.60;101921.81;5089359;27;45503;-42
2022/09/21 00:57:00;;;;;;;;;7.50;7.25;;;;;15.37;51.26;101924.50;5080450;27;48340;-42
2022/09/21 00:59:26;;;;;;;;;9.00;6.75;;;;;15.35;50.69;101918.41;5101278;27;46574;-45
2022/09/21 01:01:52;;;;;;;;;4.75;4.75;;;;;15.33;50.63;101909.69;5097360;27;45366;-43
2022/09/21 01:04:18;;;;;;;;;5.75;5.50;;;;;15.33;51.11;101914.06;5090952;27;65939;-45
2022/09/21 01:06:43;;;;;;;;;9.50;7.50;;;;;15.32;50.86;101915.00;5089375;27;47174;-44
2022/09/21 01:09:09;;;;;;;;;6.75;6.75;;;;;15.32;51.38;101913.22;5090738;27;45489;-45
2022/09/21 01:12:05;;;;;;;;;8.50;6.75;;;;;15.30;50.94;101911.53;5088042;27;57469;-45
2022/09/21 01:14:44;;;;;;;;;3.25;0.50;;;;;15.27;50.98;101915.09;5079655;27;45454;-41
2022/09/21 01:17:37;;;;;;;;;7.75;6.25;;;;;15.24;51.89;101923.09;5115490;27;46837;-43
2022/09/21 01:20:12;;;;;;;;;6.00;6.00;;;;;15.22;51.87;101921.41;5089409;27;45492;-43
2022/09/21 01:23:01;;;;;;;;;8.25;6.00;;;;;15.16;51.96;101923.31;5089770;27;45355;-42
2022/09/21 01:26:07;;;;;;;;;12.00;6.25;;;;;15.15;51.98;101924.22;5081287;27;46111;-43
2022/09/21 01:29:00;;;;;;;;;6.75;6.75;;;;;15.14;51.95;101927.78;5096088;27;45715;-42
2022/09/21 01:31:35;;;;;;;;;7.00;6.75;;;;;15.13;51.67;101922.53;5088978;27;45394;-43
2022/09/21 01:34:07;;;;;;;;;8.75;7.25;;;;;15.10;51.96;101928.78;5089069;27;45455;-43
2022/09/21 01:36:33;;;;;;;;;9.50;7.00;;;;;15.09;52.12;101921.75;5092411;27;45573;-44
2022/09/21 01:39:04;;;;;;;;;6.00;6.00;;;;;15.10;52.13;101925.25;5089992;27;72503;-43
2022/09/21 01:41:31;;;;;;;;;11.00;7.25;;;;;15.09;52.32;101928.81;5096100;27;45411;-42
2022/09/21 01:44:07;;;;;;;;;8.75;6.50;;;;;15.07;52.34;101926.22;5093946;27;67194;-43
2022/09/21 01:46:33;;;;;;;;;13.25;9.75;;;;;15.05;52.24;101925.38;5097776;27;45463;-43
2022/09/21 01:49:04;;;;;;;;;11.75;7.00;;;;;15.06;52.08;101926.25;5098645;27;46160;-43
2022/09/21 01:51:30;;;;;;;;;6.25;6.25;;;;;15.04;52.34;101928.06;5104571;27;45672;-43
2022/09/21 01:54:03;;;;;;;;;6.50;5.50;;;;;15.01;52.12;101915.81;5091091;27;68109;-42
2022/09/21 01:56:35;;;;;;;;;10.00;7.00;;;;;14.98;52.33;101927.31;5092927;27;45405;-42
2022/09/21 01:59:08;;;;;;;;;6.00;5.50;;;;;14.94;52.93;101930.94;5095796;27;45568;-43
2022/09/21 02:01:38;;;;;;;;;9.75;6.00;;;;;14.91;52.76;101925.75;5089407;27;45873;-43
2022/09/21 02:04:09;;;;;;;;;6.50;6.25;;;;;14.86;52.73;101925.00;5095887;27;45602;-44
2022/09/21 02:06:34;;;;;;;;;9.25;6.75;;;;;14.87;52.65;101920.59;5088234;27;45563;-43
2022/09/21 02:09:00;;;;;;;;;10.00;9.00;;;;;14.88;52.82;101925.81;5080627;27;74617;-43
2022/09/21 02:11:25;;;;;;;;;6.00;6.00;;;;;14.89;52.41;101929.31;5087218;27;45460;-44
2022/09/21 02:13:52;;;;;;;;;9.25;6.50;;;;;14.88;52.84;101925.81;5087834;27;64047;-46
2022/09/21 02:16:30;;;;;;;;;6.00;6.00;;;;;14.89;52.66;101921.41;5094776;27;45393;-43
2022/09/21 02:19:10;;;;;;;;;8.50;7.50;;;;;14.89;52.77;101927.56;5088614;27;47061;-44
2022/09/21 02:22:08;;;;;;;;;7.25;7.00;;;;;14.88;52.38;101936.34;5085960;27;45882;-43
2022/09/21 02:24:48;;;;;;;;;8.50;7.00;;;;;14.87;52.66;101931.13;5089226;27;45287;-43
2022/09/21 02:27:35;;;;;;;;;8.50;7.00;;;;;14.84;52.98;101933.84;5097401;27;45507;-43
2022/09/21 02:30:10;;;;;;;;;12.00;7.25;;;;;14.79;53.07;101920.78;5115322;27;46411;-44
2022/09/21 02:33:03;;;;;;;;;10.25;7.00;;;;;14.78;52.82;101922.56;5093202;27;45383;-43
2022/09/21 02:35:36;;;;;;;;;14.00;7.75;;;;;14.78;52.95;101916.41;5096520;27;45275;-44
2022/09/21 02:38:10;;;;;;;;;10.00;7.00;;;;;14.77;52.78;101910.28;5096644;27;45398;-43
2022/09/21 02:40:37;;;;;;;;;7.25;6.50;;;;;14.76;53.16;101923.50;5096460;27;46892;-42
2022/09/21 02:43:11;;;;;;;;;9.25;6.50;;;;;14.72;53.09;101924.50;5094777;27;45824;-43
2022/09/21 02:45:49;;;;;;;;;6.75;6.00;;;;;14.71;52.97;101917.47;5092886;27;45494;-42
2022/09/21 02:48:18;;;;;;;;;7.00;6.00;;;;;14.71;53.11;101909.56;5096082;27;45322;-46
2022/09/21 02:50:49;;;;;;;;;8.00;8.00;;;;;14.71;52.94;101910.44;5085720;27;46212;-43
2022/09/21 02:53:20;;;;;;;;;10.50;8.50;;;;;14.71;52.80;101910.44;5086099;27;45526;-45
2022/09/21 02:55:49;;;;;;;;;9.50;5.75;;;;;14.71;53.47;101909.56;5092703;27;45493;-43
2022/09/21 02:58:15;;;;;;;;;7.00;6.00;;;;;14.68;53.03;101905.25;5094521;27;45233;-44
2022/09/21 03:00:41;;;;;;;;;10.00;7.25;;;;;14.66;53.25;101909.72;5086794;27;54647;-46
2022/09/21 03:03:16;;;;;;;;;7.00;5.50;;;;;14.65;52.86;101904.47;5093005;27;66930;-45
2022/09/21 03:05:44;;;;;;;;;6.25;6.25;;;;;14.66;53.38;101914.09;5087373;27;45665;-44
2022/09/21 03:08:09;;;;;;;;;9.25;7.00;;;;;14.65;53.36;101902.69;5083253;27;46592;-44
2022/09/21 03:10:39;;;;;;;;;8.50;7.00;;;;;14.65;53.13;101905.31;5087232;27;70536;-46
2022/09/21 03:13:07;;;;;;;;;6.00;5.25;;;;;14.66;53.50;101908.81;5085537;27;45355;-43
2022/09/21 03:15:33;;;;;;;;;7.00;4.50;;;;;14.64;53.21;101919.38;5094441;27;45483;-42
2022/09/21 03:17:59;;;;;;;;;6.25;5.75;;;;;14.64;53.44;101919.38;5084880;27;45391;-46
2022/09/21 03:20:24;;;;;;;;;6.25;6.00;;;;;14.65;53.13;101907.97;5092312;27;71923;-45
2022/09/21 03:22:50;;;;;;;;;7.75;7.00;;;;;14.64;52.99;101910.63;5085600;27;45431;-44
2022/09/21 03:25:15;;;;;;;;;11.00;6.75;;;;;14.61;53.36;101899.28;5083799;27;65923;-41
2022/09/21 03:27:41;;;;;;;;;7.75;7.00;;;;;14.59;53.56;101901.09;5083674;27;64022;-43
2022/09/21 03:30:07;;;;;;;;;7.75;6.50;;;;;14.57;53.51;101910.75;5090653;27;45502;-42
2022/09/21 03:32:32;;;;;;;;;8.75;6.00;;;;;14.56;53.44;101909.03;5091541;27;45301;-41
2022/09/21 03:34:58;;;;;;;;;7.75;7.25;;;;;14.54;53.79;101908.19;5089417;27;58343;-43
2022/09/21 03:37:23;;;;;;;;;11.25;7.00;;;;;14.55;53.70;101909.91;5094673;27;45614;-46
2022/09/21 03:39:49;;;;;;;;;7.25;6.50;;;;;14.55;53.69;101909.91;5090597;27;45334;-43
2022/09/21 03:42:14;;;;;;;;;10.75;6.00;;;;;14.53;53.26;101916.13;5087851;27;67929;-45
2022/09/21 03:44:40;;;;;;;;;12.50;8.00;;;;;14.52;53.93;101909.13;5096205;27;45365;-43
2022/09/21 03:47:06;;;;;;;;;6.75;6.00;;;;;14.50;53.95;101909.19;5088333;27;45209;-46
2022/09/21 03:49:31;;;;;;;;;7.00;6.75;;;;;14.50;53.56;101914.47;5095244;27;46854;-44
2022/09/21 03:51:58;;;;;;;;;11.25;7.00;;;;;14.50;53.50;101910.94;5094067;27;45480;-43
2022/09/21 03:54:24;;;;;;;;;3.00;3.00;;;;;14.49;54.08;101917.97;5094115;27;45634;-44
2022/09/21 03:56:50;;;;;;;;;6.50;6.00;;;;;14.46;53.77;101915.41;5084325;27;45412;-43
2022/09/21 03:59:16;;;;;;;;;7.50;7.50;;;;;14.43;53.67;101910.25;5090788;27;45554;-44
2022/09/21 04:01:41;;;;;;;;;11.50;7.75;;;;;14.40;53.83;101902.41;5090855;27;45668;-43
2022/09/21 04:04:07;;;;;;;;;14.75;10.00;;;;;14.38;53.68;101907.72;5090313;27;45527;-43
2022/09/21 04:06:32;;;;;;;;;11.50;9.00;;;;;14.38;54.24;101907.72;5097418;27;45463;-44
2022/09/21 04:09:00;;;;;;;;;6.25;5.00;;;;;14.39;53.74;101908.56;5097476;27;46257;-42
2022/09/21 04:11:25;;;;;;;;;8.25;7.00;;;;;14.39;53.66;101905.94;5094087;27;45448;-44
2022/09/21 04:13:55;;;;;;;;;8.50;8.00;;;;;14.40;53.49;101910.31;5096494;27;68321;-43
2022/09/21 04:16:21;;;;;;;;;7.25;5.75;;;;;14.40;54.03;101902.41;5088145;27;47044;-42
2022/09/21 04:18:49;;;;;;;;;7.25;6.75;;;;;14.41;53.77;101906.75;5090531;27;46184;-44
2022/09/21 04:21:15;;;;;;;;;8.25;6.75;;;;;14.41;54.01;101898.84;5098883;27;46068;-45
2022/09/21 04:23:40;;;;;;;;;6.75;6.00;;;;;14.41;54.08;101904.13;5091761;27;45461;-44
2022/09/21 04:26:06;;;;;;;;;6.50;3.25;;;;;14.40;53.94;101903.25;5092330;27;68133;-43
2022/09/21 04:28:31;;;;;;;;;12.75;6.00;;;;;14.36;53.81;101893.72;5086746;27;46213;-43
2022/09/21 04:30:57;;;;;;;;;9.25;9.25;;;;;14.37;54.11;101905.97;5108099;27;46422;-42
2022/09/21 04:33:22;;;;;;;;;7.50;7.00;;;;;14.33;54.21;101903.47;5089728;27;67469;-42
2022/09/21 04:35:53;;;;;;;;;11.50;8.00;;;;;14.27;54.58;101907.09;5095137;27;45596;-42
2022/09/21 04:38:19;;;;;;;;;7.25;7.00;;;;;14.23;54.27;101900.16;5092631;27;45509;-43
2022/09/21 04:40:44;;;;;;;;;10.00;9.00;;;;;14.20;54.33;101903.75;5088428;27;45475;-43
2022/09/21 04:43:10;;;;;;;;;11.75;8.75;;;;;14.17;54.26;101906.44;5091058;27;45250;-45
2022/09/21 04:45:35;;;;;;;;;10.50;9.00;;;;;14.15;54.46;101903.00;5092299;27;45480;-48
2022/09/21 04:48:01;;;;;;;;;10.25;9.25;;;;;14.16;54.18;101903.84;5088208;27;64323;-47
2022/09/21 04:50:26;;;;;;;;;9.75;8.00;;;;;14.15;54.99;101910.88;5090487;27;46586;-48
2022/09/21 04:52:52;;;;;;;;;7.50;6.00;;;;;14.12;54.96;101915.34;5092971;27;45269;-47
2022/09/21 04:55:17;;;;;;;;;12.50;9.00;;;;;14.07;54.52;101914.59;5092361;27;62106;-47
2022/09/21 04:57:43;;;;;;;;;10.00;7.75;;;;;14.05;54.77;101912.00;5091908;27;45406;-47
2022/09/21 05:00:09;;;;;;;;;9.25;8.00;;;;;14.04;55.07;101916.41;5093555;27;45303;-46
2022/09/21 05:02:34;;;;;;;;;10.00;8.50;;;;;14.06;54.90;101916.38;5098872;27;45308;-45
2022/09/21 05:05:00;;;;;;;;;6.75;6.00;;;;;14.03;54.59;101912.03;5097675;27;45357;-47
2022/09/21 05:07:25;;;;;;;;;9.25;7.75;;;;;14.02;54.74;101920.84;5085325;27;55929;-43
2022/09/21 05:10:02;;;;;;;;;8.50;7.25;;;;;14.02;54.95;101917.31;5096540;27;59543;-48
2022/09/21 05:12:29;;;;;;;;;11.75;7.25;;;;;14.00;55.16;101912.06;5093506;27;45508;-44
2022/09/21 05:14:54;;;;;;;;;11.25;8.00;;;;;13.99;55.21;101918.25;5100521;27;45433;-43
2022/09/21 05:17:21;;;;;;;;;7.50;5.25;;;;;13.97;54.89;101916.53;5097422;27;46232;-44
2022/09/21 05:19:47;;;;;;;;;9.50;6.50;;;;;13.94;54.79;101911.38;5094746;27;45440;-43
2022/09/21 05:22:13;;;;;;;;;11.75;9.75;;;;;13.92;54.93;101919.28;5102606;27;45505;-44
2022/09/21 05:24:38;;;;;;;;;12.50;8.00;;;;;13.92;54.91;101915.81;5084241;27;73237;-45
2022/09/21 05:27:03;;;;;;;;;8.00;7.00;;;;;13.91;55.30;101909.66;5090560;27;74752;-44
2022/09/21 05:29:29;;;;;;;;;9.50;8.00;;;;;13.89;55.33;101911.47;5096064;27;45391;-44
2022/09/21 05:32:02;;;;;;;;;8.00;6.00;;;;;13.88;56.11;101922.03;5097354;27;45512;-42
2022/09/21 05:34:51;;;;;;;;;8.75;7.75;;;;;13.84;55.66;101919.44;5090468;27;45439;-42
2022/09/21 05:37:36;;;;;;;;;10.50;7.00;;;;;13.80;55.63;101917.78;5091007;27;45549;-47
2022/09/21 05:40:03;;;;;;;;;11.25;7.25;;;;;13.76;55.80;101915.28;5098195;27;45329;-44
2022/09/21 05:42:28;;;;;;;;;10.75;7.75;;;;;13.72;55.79;101911.81;5090779;27;45557;-44
2022/09/21 05:44:54;;;;;;;;;8.25;7.00;;;;;13.70;55.52;101908.34;5090882;27;45339;-44
2022/09/21 05:47:40;;;;;;;;;10.00;9.50;;;;;13.68;55.57;101911.00;5083657;27;45454;-44
2022/09/21 05:50:28;;;;;;;;;9.25;8.00;;;;;13.68;55.59;101913.63;5096222;27;45350;-43
2022/09/21 05:53:05;;;;;;;;;11.50;7.50;;;;;13.67;55.84;101917.19;5097241;27;45402;-48
2022/09/21 05:55:54;;;;;;;;;9.00;7.50;;;;;13.66;55.61;101915.44;5087444;27;45410;-46
2022/09/21 05:58:35;;;;;;;;;11.50;8.00;;;;;13.67;55.91;101911.94;5092143;27;46609;-48
2022/09/21 06:01:03;;;;;;;;;10.50;8.50;;;;;13.68;55.73;101915.41;5090258;27;45469;-47
2022/09/21 06:03:31;;;;;;;;;19.75;9.75;;;;;13.66;55.92;101917.22;5097749;27;45503;-47
2022/09/21 06:05:57;;;;;;;;;9.50;8.50;;;;;13.66;55.71;101917.22;5084904;27;45637;-45
2022/09/21 06:08:24;;;;;;;;;12.25;9.75;;;;;13.65;56.26;101912.84;5098282;27;47413;-46
2022/09/21 06:10:49;;;;;;;;;14.25;10.50;;;;;13.66;55.57;101917.22;5089209;27;45502;-44
2022/09/21 06:13:15;;;;;;;;;10.50;9.00;;;;;13.68;55.95;101913.63;5085920;27;45398;-45
2022/09/21 06:15:41;;;;;;;;;10.50;10.00;;;;;13.69;55.68;101909.28;5092990;27;52665;-44
2022/09/21 06:18:07;;;;;;;;;15.75;12.75;;;;;13.70;55.99;101916.25;5081137;27;46311;-43
2022/09/21 06:20:33;;;;;;;;;16.50;12.25;;;;;13.73;55.81;101917.97;5089544;27;45360;-41
2022/09/21 06:23:06;;;;;;;;;10.00;10.00;;;;;13.75;55.86;101918.78;5062360;27;45530;-42
2022/09/21 06:25:31;;;;;;;;;13.00;10.00;;;;;13.73;56.03;101918.81;5093181;27;45348;-42
2022/09/21 06:28:04;;;;;;;;;12.50;10.25;;;;;13.74;56.28;101931.09;5081692;27;65567;-49
2022/09/21 06:30:33;;;;;;;;;9.25;8.00;;;;;13.77;55.66;101927.50;5105470;27;45898;-43
2022/09/21 06:33:00;;;;;;;;;11.25;8.25;;;;;13.78;55.84;101924.00;5106793;27;45510;-47
2022/09/21 06:35:26;;;;;;;;;9.00;8.50;;;;;13.80;55.73;101928.31;5091320;27;45281;-43
2022/09/21 06:37:51;;;;;;;;;13.50;12.25;;;;;13.81;55.90;101921.28;5097300;27;47261;-46
2022/09/21 06:40:17;;;;;;;;;14.25;11.00;;;;;13.82;55.60;101926.50;5088296;27;45608;-44
2022/09/21 06:42:42;;;;;;;;;13.50;11.25;;;;;13.77;56.17;101914.34;5089541;27;67334;-44
2022/09/21 06:45:08;;;;;;;;;15.50;11.75;;;;;13.80;56.04;101928.31;5095950;27;60539;-46
2022/09/21 06:47:33;;;;;;;;;9.50;9.00;;;;;13.78;56.09;101924.00;5087815;27;45285;-45
2022/09/21 06:49:58;;;;;;;;;13.50;11.50;;;;;13.82;55.97;101928.28;5091699;27;71142;-45
2022/09/21 06:52:24;;;;;;;;;14.25;12.50;;;;;13.83;55.77;101930.03;5091062;27;68517;-46
2022/09/21 06:54:49;;;;;;;;;11.25;10.50;;;;;13.84;55.99;101932.59;5089581;27;67062;-45
2022/09/21 06:57:14;;;;;;;;;13.75;11.75;;;;;13.85;55.85;101934.34;5085851;27;46066;-44
2022/09/21 06:59:40;;;;;;;;;17.25;12.75;;;;;13.85;55.86;101934.34;5094186;27;69953;-45
2022/09/21 07:02:05;;;;;;;;;17.00;12.75;;;;;13.89;55.79;101934.28;5089910;27;54481;-48
2022/09/21 07:04:31;;;;;;;;;12.25;9.75;;;;;13.91;55.92;101930.72;5089483;27;45507;-44
2022/09/21 07:06:56;;;;;;;;;14.50;11.00;;;;;13.93;55.84;101931.53;5091277;27;49866;-46
2022/09/21 07:09:21;;;;;;;;;16.25;13.50;;;;;13.95;55.98;101931.50;5096355;27;45605;-44
2022/09/21 07:11:48;;;;;;;;;16.75;11.75;;;;;13.97;55.79;101934.97;5095108;27;51918;-45
2022/09/21 07:14:14;;;;;;;;;14.00;11.00;;;;;13.97;55.64;101940.22;5077323;27;45481;-46
2022/09/21 07:16:39;;;;;;;;;15.75;14.25;;;;;13.98;56.05;101939.34;5094849;27;46939;-45
2022/09/21 07:19:05;;;;;;;;;14.00;12.50;;;;;13.99;55.92;101930.56;5098055;27;45295;-44
2022/09/21 07:21:30;;;;;;;;;16.50;14.25;;;;;14.02;55.52;101934.00;5095724;27;45492;-45
2022/09/21 07:23:58;;;;;;;;;11.00;9.00;;;;;14.02;55.78;101926.09;5090486;27;70332;-47
2022/09/21 07:26:24;;;;;;;;;11.50;11.00;;;;;14.03;56.05;101930.44;5091497;27;46299;-45
2022/09/21 07:28:49;;;;;;;;;16.25;13.00;;;;;14.07;55.88;101925.97;5084390;27;45453;-45
2022/09/21 07:31:15;;;;;;;;;20.50;14.50;;;;;14.08;55.65;101918.94;5084608;27;45347;-47
2022/09/21 07:33:47;;;;;;;;;19.00;15.75;;;;;14.10;55.96;101930.31;5092685;27;55389;-48
2022/09/21 07:36:12;;;;;;;;;16.25;12.25;;;;;14.11;55.11;101925.03;5087630;27;46030;-45
2022/09/21 07:38:43;;;;;;;;;18.50;15.00;;;;;14.13;55.47;101920.59;5100115;27;45233;-46
2022/09/21 07:41:10;;;;;;;;;14.75;12.00;;;;;14.15;55.44;101918.78;5083789;27;45501;-48
2022/09/21 07:43:38;;;;;;;;;17.25;14.50;;;;;14.19;55.17;101924.84;5097665;27;45226;-46
2022/09/21 07:46:03;;;;;;;;;22.75;16.00;;;;;14.20;55.65;101914.28;5096444;27;45659;-48
2022/09/21 07:48:29;;;;;;;;;17.00;14.50;;;;;14.23;55.68;101914.19;5095925;27;45892;-44
2022/09/21 07:51:06;;;;;;;;;20.00;15.25;;;;;14.26;55.58;101915.91;5091732;27;45476;-47
2022/09/21 07:53:33;;;;;;;;;15.00;14.00;;;;;14.29;55.41;101901.78;5094899;27;45444;-50
2022/09/21 07:56:03;;;;;;;;;22.25;17.00;;;;;14.35;55.24;101907.78;5098401;27;46304;-46
2022/09/21 08:01:12;;;;;;;;;13.25;12.50;;;;;14.46;55.30;101909.28;5087205;27;45366;-49
2022/09/21 08:03:37;;;;;;;;;16.50;14.00;;;;;14.53;55.29;101903.81;5090659;27;45629;-46
2022/09/21 08:06:03;;;;;;;;;14.25;13.00;;;;;14.59;55.06;101911.63;5100526;27;51547;-47
2022/09/21 08:08:28;;;;;;;;;17.25;16.00;;;;;14.66;54.55;101917.59;5099970;27;45423;-45
2022/09/21 08:10:56;;;;;;;;;19.00;16.75;;;;;14.71;54.70;101912.19;5100036;27;71414;-46
2022/09/21 08:13:21;;;;;;;;;19.00;16.50;;;;;14.76;54.39;101912.97;5095157;27;45585;-46
2022/09/21 08:15:46;;;;;;;;;16.75;15.25;;;;;14.80;54.52;101912.84;5098826;27;71902;-44
2022/09/21 08:18:12;;;;;;;;;18.75;16.00;;;;;14.87;54.67;101913.53;5099551;27;67776;-46
2022/09/21 08:20:37;;;;;;;;;14.25;10.75;;;;;14.89;54.34;101914.38;5083911;27;45420;-50
2022/09/21 08:23:03;;;;;;;;;15.50;13.00;;;;;14.94;54.10;101920.41;5100147;27;45319;-47
2022/09/21 08:25:29;;;;;;;;;20.00;16.75;;;;;14.97;53.97;101912.38;5098388;27;45367;-46
2022/09/21 08:27:58;;;;;;;;;17.75;13.00;;;;;15.05;54.02;101919.22;5100489;27;74243;-46
2022/09/21 08:30:26;;;;;;;;;18.00;15.50;;;;;15.11;54.10;101917.31;5100531;27;45445;-46
2022/09/21 08:32:53;;;;;;;;;16.75;14.75;;;;;15.16;53.83;101920.69;5096835;27;46750;-48
2022/09/21 08:35:19;;;;;;;;;17.50;12.00;;;;;15.23;53.97;101923.13;5095715;27;45500;-48
2022/09/21 08:37:44;;;;;;;;;12.75;12.00;;;;;15.27;53.91;101917.75;5091497;27;45337;-46
2022/09/21 08:40:09;;;;;;;;;14.00;11.50;;;;;15.34;53.75;101913.19;5105882;27;47312;-45
2022/09/21 08:42:42;;;;;;;;;16.50;14.75;;;;;15.41;53.26;101917.38;5097412;27;53385;-49
2022/09/21 08:45:17;;;;;;;;;17.50;13.00;;;;;15.47;53.17;101917.19;5100237;27;45346;-44
2022/09/21 08:47:51;;;;;;;;;30.75;22.50;;;;;15.51;53.24;101917.94;5087732;27;45437;-49
2022/09/21 08:50:46;;;;;;;;;19.25;13.75;;;;;15.56;53.01;101919.56;5093981;27;45389;-45
2022/09/21 08:53:15;;;;;;;;;15.75;11.50;;;;;15.62;53.01;101915.03;5083758;27;45930;-45
2022/09/21 08:55:41;;;;;;;;;17.00;14.75;;;;;15.66;53.02;101916.66;5094730;27;45488;-45
2022/09/21 08:58:26;;;;;;;;;17.25;15.50;;;;;15.70;53.02;101915.66;5087606;27;68051;-46
2022/09/21 09:01:09;;;;;;;;;9.25;9.00;;;;;15.76;52.65;101920.78;5096851;27;45512;-45
2022/09/21 09:04:12;;;;;;;;;18.25;11.75;;;;;15.83;52.74;101917.06;5090464;27;45457;-44
2022/09/21 09:06:47;;;;;;;;;12.50;11.75;;;;;15.88;52.62;101914.25;5094518;27;46367;-46
2022/09/21 09:09:37;;;;;;;;;14.25;13.00;;;;;15.94;52.04;101917.59;5100144;27;45413;-45
2022/09/21 09:12:22;;;;;;;;;10.50;10.50;;;;;15.98;52.11;101918.34;5097830;27;46900;-46
2022/09/21 09:14:59;;;;;;;;;18.50;14.00;;;;;16.04;52.19;101914.66;5063292;27;45512;-45
2022/09/21 09:17:33;;;;;;;;;11.25;10.75;;;;;16.09;51.99;101921.53;5081471;27;46142;-45
2022/09/21 09:20:09;;;;;;;;;17.50;11.25;;;;;16.16;52.00;101924.00;5098733;27;45472;-44
2022/09/21 09:23:06;;;;;;;;;16.25;12.75;;;;;16.23;52.05;101920.25;5095216;27;45317;-44
2022/09/21 09:25:36;;;;;;;;;9.00;7.50;;;;;16.30;51.66;101916.50;5077039;27;45763;-48
2022/09/21 09:28:23;;;;;;;;;11.00;6.75;;;;;16.36;51.34;101918.06;5097738;27;47470;-45
2022/09/21 09:30:55;;;;;;;;;11.50;9.00;;;;;16.42;50.93;101909.94;5089369;27;45391;-44
2022/09/21 09:33:26;;;;;;;;;12.00;9.00;;;;;16.48;51.27;101922.94;5098366;27;45327;-45
2022/09/21 09:35:59;;;;;;;;;16.75;12.00;;;;;16.55;50.52;101913.91;5089463;27;45477;-44
2022/09/21 09:38:44;;;;;;;;;9.50;7.25;;;;;16.62;50.38;101915.44;5099389;27;45489;-44
2022/09/21 09:41:34;;;;;;;;;11.25;9.00;;;;;16.69;49.89;101914.31;5094697;27;46102;-44
2022/09/21 09:44:21;;;;;;;;;10.25;6.25;;;;;16.76;49.68;101911.47;5098910;27;45410;-47
2022/09/21 09:46:52;;;;;;;;;7.50;6.50;;;;;16.82;49.60;101909.47;5087640;27;45142;-45
2022/09/21 09:49:43;;;;;;;;;6.75;5.25;;;;;16.88;48.75;101914.56;5100141;27;45659;-43
2022/09/21 09:52:11;;;;;;;;;5.00;5.00;;;;;16.95;49.08;101915.25;5062393;27;45945;-45
2022/09/21 09:54:36;;;;;;;;;6.75;4.00;;;;;16.99;48.53;101922.13;5090856;27;45530;-45
2022/09/21 09:57:03;;;;;;;;;5.50;5.50;;;;;17.02;48.71;101916.75;5091500;27;60145;-45
2022/09/21 09:59:37;;;;;;;;;8.75;7.00;;;;;17.06;48.56;101921.00;5089611;27;45401;-47
2022/09/21 10:02:04;;;;;;;;;6.25;5.25;;;;;17.10;48.54;101918.25;5072032;27;46057;-44
2022/09/21 10:04:30;;;;;;;;;5.50;5.00;;;;;17.13;47.88;101915.50;5099529;27;45347;-48
2022/09/21 10:06:57;;;;;;;;;8.00;5.50;;;;;17.17;48.01;101914.47;5098851;27;51863;-44
2022/09/21 10:09:28;;;;;;;;;5.00;5.00;;;;;17.21;47.95;101905.50;5091999;27;46233;-45
2022/09/21 10:12:19;;;;;;;;;8.75;6.50;;;;;17.26;47.43;101912.38;5092884;27;46005;-50
2022/09/21 10:14:50;;;;;;;;;5.75;5.75;;;;;17.32;47.50;101902.50;5097795;27;45463;-44
2022/09/21 10:17:17;;;;;;;;;8.00;5.75;;;;;17.38;47.41;101903.09;5095598;27;45509;-46
2022/09/21 10:19:43;;;;;;;;;9.00;7.50;;;;;17.44;47.29;101899.38;5098593;27;47180;-46
2022/09/21 10:22:18;;;;;;;;;6.75;5.50;;;;;17.50;47.15;101898.28;5096242;27;45381;-47
2022/09/21 10:24:51;;;;;;;;;5.00;4.50;;;;;17.56;46.74;101904.19;5088048;27;45439;-44
2022/09/21 10:27:32;;;;;;;;;5.50;4.75;;;;;17.59;46.70;101906.75;5088370;27;45641;-47
2022/09/21 10:29:58;;;;;;;;;7.75;4.75;;;;;17.62;46.69;101900.47;5097325;27;46595;-44
2022/09/21 10:32:26;;;;;;;;;7.50;5.00;;;;;17.65;46.56;101900.34;5097173;27;63675;-46
2022/09/21 10:35:04;;;;;;;;;4.00;4.00;;;;;17.67;46.57;101895.00;5086257;27;45327;-48
2022/09/21 10:37:36;;;;;;;;;6.75;5.00;;;;;17.70;46.55;101894.88;5091220;27;45548;-47
2022/09/21 10:40:03;;;;;;;;;7.50;5.75;;;;;17.71;46.31;101892.19;5094402;27;46958;-44
2022/09/21 10:42:33;;;;;;;;;4.75;3.00;;;;;17.73;46.26;101890.34;5088565;27;45203;-49
2022/09/21 10:45:20;;;;;;;;;6.00;4.00;;;;;17.74;46.43;101888.53;5096386;27;45284;-46
2022/09/21 10:48:04;;;;;;;;;5.00;5.00;;;;;17.79;46.25;101883.94;5094024;27;45696;-46
2022/09/21 10:50:47;;;;;;;;;6.25;6.25;;;;;17.82;46.17;101892.63;5089312;27;45258;-47
2022/09/21 10:53:27;;;;;;;;;6.00;5.00;;;;;17.84;45.09;101892.56;5080909;27;45722;-50
2022/09/21 10:56:02;;;;;;;;;6.00;5.00;;;;;17.87;46.31;101881.91;5084602;27;45370;-49
2022/09/21 10:58:28;;;;;;;;;4.00;4.00;;;;;17.92;45.47;101892.28;5112576;27;45252;-50
2022/09/21 11:00:55;;;;;;;;;7.00;5.00;;;;;17.96;44.84;101878.03;5078709;27;46994;-44
2022/09/21 11:03:55;;;;;;;;;5.00;4.50;;;;;18.01;44.68;101881.34;5098393;27;45426;-46
2022/09/21 11:06:36;;;;;;;;;6.00;5.00;;;;;18.04;44.99;101867.97;5108817;27;45293;-48
2022/09/21 11:09:07;;;;;;;;;5.75;5.50;;;;;18.12;45.00;101865.88;5098191;27;45356;-48
2022/09/21 11:11:48;;;;;;;;;6.00;4.25;;;;;18.19;44.81;101862.06;5094930;27;48061;-47
2022/09/21 11:14:23;;;;;;;;;5.75;4.50;;;;;18.29;44.48;101869.63;5096519;27;45429;-46
2022/09/21 11:16:54;;;;;;;;;5.50;4.25;;;;;18.34;43.00;101865.88;5098497;27;45665;-47
2022/09/21 11:19:36;;;;;;;;;4.00;4.00;;;;;18.41;43.53;101869.09;5095839;27;45418;-46
2022/09/21 11:22:14;;;;;;;;;3.00;3.00;;;;;18.46;43.09;101858.31;5094082;27;45421;-48
2022/09/21 11:25:10;;;;;;;;;4.75;3.00;;;;;18.48;42.34;101859.97;5095682;27;45709;-49
2022/09/21 11:27:40;;;;;;;;;9.50;3.50;;;;;18.52;43.04;101860.69;5097221;27;45503;-47
2022/09/21 11:30:12;;;;;;;;;3.75;3.00;;;;;18.53;42.96;101851.84;5096416;27;45283;-45
2022/09/21 11:32:56;;;;;;;;;3.25;3.00;;;;;18.55;42.16;101850.81;5098943;27;46459;-46
2022/09/21 11:36:00;;;;;;;;;5.00;5.00;;;;;18.56;42.36;101844.59;5097943;27;45709;-47
2022/09/21 11:38:42;;;;;;;;;5.75;4.50;;;;;18.59;42.43;101855.09;5078091;27;45425;-47